MKJP/KIN METAR and TAF weather

Enter ICAO airport designator
Station Type Date Time Source
MKJP METAR 2019/08/21 22:00 UTC NOAA

MKJP 212200Z 13014KT 9999 FEW020 FEW022CB 30/24 Q1013


Station Type Date Time Source
MKJP Decoded METAR 2019/08/21 22:00 UTC NOAA

Station name not available
Aug 21, 2019 - 06:00 PM EDT / 2019.08.21 2200 UTC
Wind: from the SE (130 degrees) at 16 MPH (14 KT):0
Visibility: greater than 7 mile(s):0
Sky conditions: mostly clear
Weather: Cumulonimbus clouds observed
Temperature: 86 F (30 C)
Heat index: 95.0 F (35.0 C):1
Dew Point: 75 F (24 C)
Relative Humidity: 70%
Pressure (altimeter): 29.91 in. Hg (1013 hPa)
ob: MKJP 212200Z 13014KT 9999 FEW020 FEW022CB 30/24 Q1013
cycle: 22

Station Type Date Time Source
MKJP TAF 2019/08/21 18:18 UTC NOAA

TAF MKJP 211715Z 2118/2218 15023KT 9999 FEW020 FEW022CB
BECMG 2202/2204 35005KT FEW022
BECMG 2213/2215 14018KT

Example: see airport list